createdAt,value
2022-08-09T00:06:17.782Z,15.00
2022-08-09T00:16:04.729Z,12.50
2022-08-09T00:28:22.789Z,21.40
2022-08-09T00:47:04.416Z,18.10
2022-08-09T00:51:25.700Z,15.70
2022-08-09T01:27:35.422Z,12.80
2022-08-09T01:51:03.909Z,13.30
2022-08-09T01:54:09.742Z,13.80
2022-08-09T02:19:46.441Z,21.30
2022-08-09T02:22:46.487Z,23.40
2022-08-09T02:30:17.464Z,27.50
2022-08-09T02:45:54.083Z,16.80
2022-08-09T02:48:48.302Z,15.90
2022-08-09T03:05:55.572Z,14.40
2022-08-09T03:18:10.712Z,11.30
2022-08-09T03:21:28.118Z,13.90
2022-08-09T03:24:52.382Z,12.90
2022-08-09T03:32:47.521Z,13.50
2022-08-09T03:36:27.293Z,14.30
2022-08-09T03:44:08.037Z,11.90
2022-08-09T04:09:15.821Z,11.40
2022-08-09T04:13:11.535Z,12.30
2022-08-09T04:33:53.176Z,17.20
2022-08-09T04:43:19.094Z,15.10
2022-08-09T04:46:59.486Z,15.20
2022-08-09T04:59:17.750Z,13.30
2022-08-09T05:02:48.619Z,16.40
2022-08-09T05:14:26.903Z,22.40
2022-08-09T05:18:55.272Z,23.50
2022-08-09T05:29:35.406Z,16.10
2022-08-09T05:36:57.117Z,14.30
2022-08-09T05:39:58.695Z,12.30
2022-08-09T05:42:30.076Z,11.70
2022-08-09T05:44:59.988Z,13.00
2022-08-09T05:47:33.213Z,18.20
2022-08-09T05:50:26.882Z,12.50
2022-08-09T05:52:53.741Z,12.60
2022-08-09T05:55:23.997Z,12.60
2022-08-09T05:57:57.456Z,12.40
2022-08-09T06:00:30.555Z,9.80
2022-08-09T06:03:03.842Z,14.80
2022-08-09T06:05:49.864Z,10.90
2022-08-09T06:08:26.625Z,8.80
2022-08-09T06:10:58.029Z,10.00
2022-08-09T06:13:33.579Z,17.40
2022-08-09T06:16:04.708Z,9.90
2022-08-09T06:18:34.818Z,17.20
2022-08-09T06:21:05.858Z,10.60
2022-08-09T06:23:59.022Z,8.50
2022-08-09T06:26:28.538Z,7.40
2022-08-09T06:28:59.287Z,9.80
2022-08-09T06:31:39.330Z,7.50
2022-08-09T06:34:09.596Z,10.10
2022-08-09T06:36:43.855Z,7.10
2022-08-09T06:39:14.690Z,8.40
2022-08-09T06:42:32.958Z,6.70
2022-08-09T06:45:09.230Z,7.50
2022-08-09T06:48:00.613Z,7.70
2022-08-09T06:50:31.218Z,6.80
2022-08-09T06:53:06.351Z,8.10
2022-08-09T06:58:04.749Z,5.80
2022-08-09T07:00:56.359Z,5.50
2022-08-09T07:03:28.543Z,3.80
2022-08-09T07:06:03.830Z,3.80
2022-08-09T07:08:37.107Z,7.90
2022-08-09T07:16:36.311Z,6.00
2022-08-09T07:18:43.942Z,3.70
2022-08-09T07:21:20.008Z,6.20
2022-08-09T07:23:58.293Z,7.00
2022-08-09T07:26:34.272Z,7.50
2022-08-09T07:29:12.081Z,8.20
2022-08-09T07:31:45.393Z,6.30
2022-08-09T07:34:20.584Z,6.50
2022-08-09T07:36:50.520Z,3.90
2022-08-09T07:39:41.163Z,5.80
2022-08-09T07:42:11.123Z,2.90
2022-08-09T07:44:51.221Z,4.20
2022-08-09T07:47:23.113Z,3.20
2022-08-09T07:50:08.361Z,2.00
2022-08-09T07:52:40.764Z,3.70
2022-08-09T07:55:12.098Z,7.30
2022-08-09T07:57:46.689Z,3.00
2022-08-09T08:00:20.187Z,6.30
2022-08-09T08:02:50.056Z,4.80
2022-08-09T08:05:20.845Z,2.50
2022-08-09T08:08:43.003Z,1.90
2022-08-09T08:13:23.592Z,3.80
2022-08-09T08:15:52.907Z,7.30
2022-08-09T08:18:22.357Z,2.60
2022-08-09T08:20:51.031Z,1.80
2022-08-09T08:23:20.305Z,3.90
2022-08-09T08:26:06.490Z,2.90
2022-08-09T08:28:37.382Z,1.80
2022-08-09T08:31:14.712Z,4.50
2022-08-09T08:33:52.923Z,1.50
2022-08-09T08:36:28.811Z,4.90
2022-08-09T08:39:00.519Z,4.80
2022-08-09T08:41:50.800Z,3.20
2022-08-09T08:44:27.269Z,3.30
2022-08-09T08:47:03.154Z,2.20
2022-08-09T08:49:48.290Z,1.80
2022-08-09T08:52:58.268Z,2.60
2022-08-09T08:55:11.023Z,2.10
2022-08-09T08:57:43.272Z,3.80
2022-08-09T09:00:30.103Z,1.50
2022-08-09T09:03:08.226Z,3.10
2022-08-09T09:06:01.173Z,5.00
2022-08-09T09:08:40.164Z,3.80
2022-08-09T09:11:13.844Z,4.40
2022-08-09T09:13:56.234Z,2.10
2022-08-09T09:16:30.458Z,4.10
2022-08-09T09:22:08.033Z,2.20
2022-08-09T09:24:43.946Z,2.30
2022-08-09T09:28:03.910Z,4.70
2022-08-09T09:30:28.847Z,4.80
2022-08-09T09:33:16.358Z,2.20
2022-08-09T09:40:46.262Z,2.00
2022-08-09T09:43:19.598Z,3.70
2022-08-09T09:46:46.080Z,3.60
2022-08-09T09:49:49.973Z,3.00
2022-08-09T09:52:33.356Z,4.20
2022-08-09T09:55:16.124Z,2.50
2022-08-09T09:58:03.664Z,4.60
2022-08-09T10:00:43.024Z,1.90
2022-08-09T10:03:38.127Z,2.90
2022-08-09T10:06:09.091Z,3.00
2022-08-09T10:08:54.245Z,3.30
2022-08-09T10:11:58.953Z,4.60
2022-08-09T10:14:27.323Z,2.80
2022-08-09T10:17:17.684Z,3.40
2022-08-09T10:19:52.057Z,4.00
2022-08-09T10:22:35.065Z,1.90
2022-08-09T10:25:11.827Z,3.90
2022-08-09T10:27:57.114Z,2.50
2022-08-09T10:33:29.670Z,1.70
2022-08-09T10:36:57.140Z,2.30
2022-08-09T10:41:57.881Z,1.70
2022-08-09T10:44:30.503Z,2.60
2022-08-09T10:48:12.304Z,2.10
2022-08-09T10:50:15.050Z,2.60
2022-08-09T10:53:03.818Z,1.60
2022-08-09T10:55:49.227Z,1.60
2022-08-09T10:58:34.765Z,3.90
2022-08-09T11:03:02.145Z,3.80
2022-08-09T11:04:27.908Z,2.00
2022-08-09T11:07:57.425Z,6.80
2022-08-09T11:11:00.832Z,2.00
2022-08-09T11:13:50.587Z,2.20
2022-08-09T11:22:21.684Z,4.10
2022-08-09T11:25:08.451Z,1.60
2022-08-09T11:28:05.583Z,2.20
2022-08-09T11:30:35.607Z,4.10
2022-08-09T11:33:10.772Z,1.50
2022-08-09T11:35:49.603Z,2.60
2022-08-09T11:38:32.484Z,2.00
2022-08-09T11:41:38.002Z,2.60
2022-08-09T11:44:09.534Z,11.20
2022-08-09T11:47:00.257Z,2.20
2022-08-09T11:50:52.464Z,3.80
2022-08-09T11:53:57.701Z,2.80
2022-08-09T11:56:42.852Z,2.00
2022-08-09T11:59:30.213Z,6.70
2022-08-09T12:02:34.529Z,2.90
2022-08-09T12:04:57.932Z,2.70
2022-08-09T12:07:41.503Z,2.00
2022-08-09T12:10:32.040Z,2.50
2022-08-09T12:13:03.855Z,7.70
2022-08-09T12:15:52.328Z,4.40
2022-08-09T12:18:30.080Z,3.10
2022-08-09T12:21:03.132Z,3.10
2022-08-09T12:23:58.697Z,2.60
2022-08-09T12:26:26.154Z,1.60
2022-08-09T12:29:14.071Z,3.80
2022-08-09T12:32:01.551Z,1.80
2022-08-09T12:34:36.763Z,2.60
2022-08-09T12:37:21.393Z,3.00
2022-08-09T12:40:05.665Z,5.10
2022-08-09T12:42:35.799Z,6.20
2022-08-09T12:45:32.155Z,11.60
2022-08-09T12:47:57.329Z,1.60
2022-08-09T12:50:26.768Z,5.20
2022-08-09T12:57:36.166Z,3.80
2022-08-09T13:00:28.764Z,2.50
2022-08-09T13:07:10.872Z,2.50
2022-08-09T13:09:40.828Z,3.50
2022-08-09T13:12:10.081Z,3.20
2022-08-09T13:14:44.356Z,3.60
2022-08-09T13:17:43.894Z,3.30
2022-08-09T13:20:18.879Z,6.10
2022-08-09T13:23:01.846Z,3.40
2022-08-09T13:25:53.069Z,3.50
2022-08-09T13:28:35.976Z,2.20
2022-08-09T13:32:13.252Z,3.40
2022-08-09T13:34:01.857Z,3.00
2022-08-09T13:36:42.632Z,4.40
2022-08-09T13:41:20.855Z,3.20
2022-08-09T13:42:04.444Z,4.60
2022-08-09T13:44:33.887Z,2.40
2022-08-09T13:47:53.745Z,4.50
2022-08-09T13:50:31.077Z,2.20
2022-08-09T13:53:00.565Z,2.20
2022-08-09T13:55:30.510Z,2.30
2022-08-09T13:57:59.575Z,2.70
2022-08-09T14:00:29.736Z,2.00
2022-08-09T14:03:03.731Z,5.90
2022-08-09T14:05:59.584Z,6.00
2022-08-09T14:08:33.150Z,2.60
2022-08-09T14:11:04.014Z,3.30
2022-08-09T14:14:22.320Z,2.30
2022-08-09T14:16:34.571Z,3.90
2022-08-09T14:19:03.580Z,5.10
2022-08-09T14:21:32.509Z,9.00
2022-08-09T14:24:10.479Z,9.40
2022-08-09T14:26:51.821Z,3.00
2022-08-09T14:29:25.654Z,3.30
2022-08-09T14:32:11.195Z,3.20
2022-08-09T14:34:45.099Z,2.40
2022-08-09T14:37:14.215Z,2.60
2022-08-09T14:39:48.579Z,5.00
2022-08-09T14:42:32.120Z,2.90
2022-08-09T14:46:38.859Z,3.20
2022-08-09T14:47:57.166Z,1.90
2022-08-09T14:50:31.098Z,2.00
2022-08-09T14:53:01.225Z,3.40
2022-08-09T14:58:04.636Z,3.80
2022-08-09T15:00:36.335Z,5.30
2022-08-09T15:03:07.392Z,3.20
2022-08-09T15:05:38.551Z,6.70
2022-08-09T15:08:10.283Z,3.10
2022-08-09T15:10:39.994Z,5.20
2022-08-09T15:13:12.743Z,3.80
2022-08-09T15:15:43.702Z,3.90
2022-08-09T15:21:54.616Z,6.20
2022-08-09T15:24:06.098Z,2.20
2022-08-09T15:26:30.831Z,4.10
2022-08-09T15:29:04.253Z,2.90
2022-08-09T15:31:41.559Z,2.70
2022-08-09T15:34:32.503Z,4.00
2022-08-09T15:37:04.335Z,3.10
2022-08-09T15:39:43.857Z,6.90
2022-08-09T15:42:22.259Z,3.60
2022-08-09T15:44:51.548Z,2.90
2022-08-09T15:47:21.646Z,2.40
2022-08-09T15:50:00.750Z,2.60
2022-08-09T15:52:34.622Z,5.90
2022-08-09T15:57:36.013Z,5.60
2022-08-09T16:00:24.193Z,4.00
2022-08-09T16:02:56.792Z,3.10
2022-08-09T16:05:47.226Z,6.80
2022-08-09T16:08:30.543Z,6.10
2022-08-09T16:11:02.100Z,4.10
2022-08-09T16:14:02.581Z,3.10
2022-08-09T16:16:28.133Z,3.70
2022-08-09T16:18:57.340Z,3.90
2022-08-09T16:21:26.510Z,4.10
2022-08-09T16:24:02.221Z,3.00
2022-08-09T16:26:34.760Z,3.00
2022-08-09T16:29:11.244Z,4.00
2022-08-09T16:32:19.086Z,5.70
2022-08-09T16:34:44.829Z,2.60
2022-08-09T16:37:55.229Z,6.20
2022-08-09T16:40:13.706Z,4.30
2022-08-09T16:42:44.807Z,4.80
2022-08-09T16:45:19.314Z,2.80
2022-08-09T16:48:38.090Z,2.70
2022-08-09T16:50:39.345Z,3.90
2022-08-09T16:53:09.016Z,3.90
2022-08-09T16:55:59.068Z,2.30
2022-08-09T16:58:27.124Z,2.80
2022-08-09T17:00:56.482Z,4.70
2022-08-09T17:03:28.182Z,3.50
2022-08-09T17:06:07.160Z,5.20
2022-08-09T17:09:01.396Z,6.70
2022-08-09T17:11:41.923Z,5.90
2022-08-09T17:14:25.995Z,3.20
2022-08-09T17:17:01.494Z,3.20
2022-08-09T17:19:47.211Z,6.60
2022-08-09T17:22:29.069Z,5.50
2022-08-09T17:25:05.100Z,3.10
2022-08-09T17:27:49.070Z,4.40
2022-08-09T17:30:19.728Z,4.50
2022-08-09T17:32:52.926Z,5.20
2022-08-09T17:35:22.365Z,5.20
2022-08-09T17:38:11.495Z,4.20
2022-08-09T17:40:47.334Z,4.10
2022-08-09T17:43:34.102Z,4.70
2022-08-09T17:46:09.161Z,4.40
2022-08-09T17:48:51.833Z,3.30
2022-08-09T17:51:22.110Z,8.60
2022-08-09T17:53:54.797Z,4.50
2022-08-09T17:56:27.251Z,3.90
2022-08-09T17:58:59.486Z,5.10
2022-08-09T18:02:03.220Z,5.30
2022-08-09T18:04:21.580Z,6.80
2022-08-09T18:06:55.268Z,5.60
2022-08-09T18:09:40.036Z,8.60
2022-08-09T18:12:19.452Z,7.30
2022-08-09T18:14:54.875Z,9.50
2022-08-09T18:17:27.517Z,7.40
2022-08-09T18:20:54.577Z,10.60
2022-08-09T18:23:07.118Z,13.40
2022-08-09T18:25:52.944Z,12.20
2022-08-09T18:30:42.606Z,12.50
2022-08-09T18:31:24.980Z,11.00
2022-08-09T18:34:08.660Z,11.90
2022-08-09T18:36:38.215Z,13.90
2022-08-09T18:39:07.438Z,10.20
2022-08-09T18:41:52.512Z,8.90
2022-08-09T18:44:25.767Z,7.20
2022-08-09T18:47:05.139Z,8.40
2022-08-09T18:49:46.726Z,10.30
2022-08-09T18:52:24.711Z,10.00
2022-08-09T18:54:54.460Z,7.90
2022-08-09T18:57:43.001Z,7.40
2022-08-09T19:00:20.302Z,9.40
2022-08-09T19:02:54.083Z,10.40
2022-08-09T19:05:41.538Z,9.20
2022-08-09T19:10:54.127Z,10.90
2022-08-09T19:13:38.579Z,9.40
2022-08-09T19:16:20.849Z,10.30
2022-08-09T19:18:52.244Z,9.40
2022-08-09T19:21:21.709Z,10.30
2022-08-09T19:24:37.355Z,10.60
2022-08-09T19:27:11.531Z,8.40
2022-08-09T19:30:21.394Z,10.70
2022-08-09T19:32:37.437Z,10.90
2022-08-09T19:35:09.247Z,7.80
2022-08-09T19:37:54.592Z,8.00
2022-08-09T19:40:34.048Z,10.70
2022-08-09T19:43:10.199Z,7.70
2022-08-09T19:45:45.391Z,10.60
2022-08-09T19:48:16.629Z,10.60
2022-08-09T19:51:07.919Z,10.10
2022-08-09T19:53:37.225Z,11.00
2022-08-09T19:56:15.445Z,9.00
2022-08-09T19:58:56.382Z,8.90
2022-08-09T20:01:52.196Z,9.40
2022-08-09T20:04:36.662Z,9.90
2022-08-09T20:07:12.204Z,12.50
2022-08-09T20:09:50.029Z,9.00
2022-08-09T20:12:30.297Z,9.20
2022-08-09T20:16:31.664Z,10.70
2022-08-09T20:18:02.272Z,8.80
2022-08-09T20:20:35.357Z,11.10
2022-08-09T20:23:07.896Z,12.70
2022-08-09T20:25:52.584Z,14.50
2022-08-09T20:28:34.179Z,9.00
2022-08-09T20:31:04.905Z,10.70
2022-08-09T20:36:14.168Z,10.50
2022-08-09T20:39:28.283Z,11.70
2022-08-09T20:41:35.720Z,12.50
2022-08-09T20:44:10.408Z,11.00
2022-08-09T20:46:44.690Z,10.40
2022-08-09T20:49:15.988Z,11.90
2022-08-09T20:51:50.553Z,13.60
2022-08-09T20:54:21.346Z,11.40
2022-08-09T20:56:54.130Z,13.40
2022-08-09T20:59:49.939Z,11.20
2022-08-09T21:02:17.723Z,10.00
2022-08-09T21:05:52.521Z,9.40
2022-08-09T21:07:40.251Z,10.80
2022-08-09T21:10:13.127Z,11.00
2022-08-09T21:15:33.995Z,11.30
2022-08-09T21:18:23.475Z,11.30
2022-08-09T21:20:54.840Z,10.40
2022-08-09T21:23:36.096Z,10.80
2022-08-09T21:26:15.683Z,10.90
2022-08-09T21:28:56.082Z,13.70
2022-08-09T21:31:48.592Z,10.90
2022-08-09T21:34:21.026Z,10.40
2022-08-09T21:36:57.958Z,10.90
2022-08-09T21:39:28.383Z,9.70
2022-08-09T21:42:11.902Z,9.10
2022-08-09T21:44:41.102Z,11.20
2022-08-09T21:47:17.500Z,8.90
2022-08-09T21:49:51.153Z,12.70
2022-08-09T21:52:21.045Z,9.30
2022-08-09T21:54:57.112Z,10.40
2022-08-09T21:57:38.250Z,10.80
2022-08-09T22:00:31.830Z,9.00
2022-08-09T22:03:04.756Z,8.60
2022-08-09T22:05:36.727Z,11.60
2022-08-09T22:08:14.776Z,8.60
2022-08-09T22:11:00.992Z,9.30
2022-08-09T22:13:36.721Z,8.10
2022-08-09T22:16:08.625Z,9.10
2022-08-09T22:18:53.022Z,10.30
2022-08-09T22:21:27.656Z,10.70
2022-08-09T22:24:17.075Z,11.30
2022-08-09T22:26:51.208Z,12.60
2022-08-09T22:29:28.429Z,10.60
2022-08-09T22:34:30.302Z,12.10
2022-08-09T22:36:59.789Z,23.50
2022-08-09T22:39:55.707Z,18.20
2022-08-09T22:42:20.965Z,37.10
2022-08-09T22:48:04.885Z,32.80
2022-08-09T22:50:31.576Z,39.20
2022-08-09T22:53:03.779Z,37.40
2022-08-09T22:56:06.411Z,40.20
2022-08-09T22:58:32.381Z,38.50
2022-08-09T23:01:05.628Z,36.50
2022-08-09T23:04:03.907Z,41.20
2022-08-09T23:06:35.142Z,38.10
2022-08-09T23:09:07.923Z,32.30
2022-08-09T23:11:36.790Z,29.00
2022-08-09T23:14:17.255Z,31.40
2022-08-09T23:16:46.456Z,27.00
2022-08-09T23:19:15.298Z,25.20
2022-08-09T23:21:43.992Z,20.60
2022-08-09T23:24:13.418Z,23.10
2022-08-09T23:26:42.228Z,16.40
2022-08-09T23:29:13.047Z,18.90
2022-08-09T23:31:42.811Z,14.20
2022-08-09T23:34:11.928Z,21.90
2022-08-09T23:36:40.867Z,14.70
2022-08-09T23:39:09.644Z,19.60
2022-08-09T23:41:38.692Z,20.60
2022-08-09T23:44:07.545Z,24.80
2022-08-09T23:46:36.369Z,18.60
2022-08-09T23:49:05.116Z,20.40
2022-08-09T23:51:35.271Z,20.00
2022-08-09T23:54:04.332Z,19.20
2022-08-09T23:56:52.243Z,18.70
2022-08-09T23:59:25.104Z,15.90
